Time;durP1;ratioP1;P1;durP2;ratioP2;P2;SDS_P1;SDS_P2;PMS_P1;PMS_P2;Temp;Humidity;BMP_temperature;BMP_pressure;BME280_temperature;BME280_humidity;BME280_pressure;Samples;Min_cycle;Max_cycle;Signal;HPM_P1;HPM_P2
2023/02/26 00:05:53;;;;;;;17.13;5.10;;;-1.00;99.90;;;;;;4995373;28;20222;-61
2023/02/26 00:08:21;;;;;;;16.17;5.20;;;-1.00;99.90;;;;;;4995261;28;20252;-61
2023/02/26 00:10:53;;;;;;;10.47;4.33;;;-1.00;99.90;;;;;;4995547;28;20754;-60
2023/02/26 00:13:22;;;;;;;10.27;4.53;;;-1.00;99.90;;;;;;4994313;28;20218;-60
2023/02/26 00:15:56;;;;;;;10.70;4.27;;;-1.00;99.90;;;;;;4990654;28;20190;-60
2023/02/26 00:18:25;;;;;;;8.93;4.20;;;-1.00;99.90;;;;;;4975696;28;20282;-60
2023/02/26 00:20:55;;;;;;;12.40;4.57;;;-1.00;99.90;;;;;;4961368;28;20237;-60
2023/02/26 00:23:24;;;;;;;12.83;4.50;;;-1.10;99.90;;;;;;4975817;28;20716;-61
2023/02/26 00:25:52;;;;;;;8.30;4.73;;;-1.10;99.90;;;;;;4975606;28;20633;-60
2023/02/26 00:28:21;;;;;;;13.07;4.27;;;-1.10;99.90;;;;;;4975357;28;20712;-61
2023/02/26 00:34:55;;;;;;;11.90;4.60;;;-1.10;99.90;;;;;;4974381;28;20590;-60
2023/02/26 00:37:38;;;;;;;8.50;4.20;;;-1.10;99.90;;;;;;4979890;28;20226;-60
2023/02/26 00:40:20;;;;;;;11.53;4.23;;;-1.10;99.90;;;;;;4994916;28;20242;-60
2023/02/26 00:42:49;;;;;;;11.87;4.77;;;-1.10;99.90;;;;;;4995433;28;20182;-61
2023/02/26 00:45:18;;;;;;;12.17;4.37;;;-1.10;99.90;;;;;;4994423;28;20229;-60
2023/02/26 00:47:52;;;;;;;11.60;4.50;;;-1.10;99.90;;;;;;4977236;28;20226;-61
2023/02/26 00:50:23;;;;;;;14.17;4.70;;;-1.20;99.90;;;;;;4994554;28;20222;-60
2023/02/26 00:53:08;;;;;;;9.97;4.43;;;-1.20;99.90;;;;;;4994372;28;20234;-60
2023/02/26 00:55:36;;;;;;;9.43;4.57;;;-1.20;99.90;;;;;;4994471;28;20272;-60
2023/02/26 00:58:05;;;;;;;15.00;4.37;;;-1.20;99.90;;;;;;4994036;28;20213;-60
2023/02/26 01:00:33;;;;;;;10.77;4.37;;;-1.20;99.90;;;;;;4994926;28;20194;-60
2023/02/26 01:03:02;;;;;;;12.30;4.40;;;-1.20;99.90;;;;;;4994359;28;20227;-60
2023/02/26 01:05:31;;;;;;;7.90;4.47;;;-1.20;99.90;;;;;;4993941;28;20554;-60
2023/02/26 01:08:10;;;;;;;13.60;4.43;;;-1.20;99.90;;;;;;4994296;28;20268;-60
2023/02/26 01:10:38;;;;;;;12.00;4.07;;;-1.20;99.90;;;;;;4993949;28;20222;-60
2023/02/26 01:13:07;;;;;;;11.53;4.63;;;-1.20;99.90;;;;;;4994040;28;20195;-59
2023/02/26 01:15:43;;;;;;;8.57;4.23;;;-1.20;99.90;;;;;;4994406;28;20191;-60
2023/02/26 01:18:16;;;;;;;9.77;4.07;;;-1.20;99.90;;;;;;4993957;28;20222;-59
2023/02/26 01:20:47;;;;;;;7.37;4.10;;;-1.10;99.90;;;;;;4993898;28;20230;-60
2023/02/26 01:23:22;;;;;;;13.53;4.30;;;-1.20;99.90;;;;;;4994226;28;20237;-60
2023/02/26 01:25:54;;;;;;;11.60;4.17;;;-1.20;99.90;;;;;;4993897;28;20763;-60
2023/02/26 01:28:23;;;;;;;11.73;4.33;;;-1.20;99.90;;;;;;4993951;28;20222;-60
2023/02/26 01:30:55;;;;;;;12.63;5.10;;;-1.10;99.90;;;;;;4994346;28;20237;-60
2023/02/26 01:33:29;;;;;;;12.10;4.80;;;-1.10;99.90;;;;;;4994033;28;20278;-60
2023/02/26 01:36:03;;;;;;;11.00;3.90;;;-1.00;99.90;;;;;;4993900;28;20228;-61
2023/02/26 01:38:40;;;;;;;10.60;4.07;;;-1.00;99.90;;;;;;4993826;28;20218;-60
2023/02/26 01:41:31;;;;;;;5.87;4.03;;;-1.00;99.90;;;;;;4993577;28;20218;-60
2023/02/26 01:44:15;;;;;;;11.00;3.80;;;-0.90;99.90;;;;;;4987472;28;20225;-60
2023/02/26 01:47:00;;;;;;;13.60;3.83;;;-0.80;99.90;;;;;;4993803;28;20214;-60
2023/02/26 01:49:29;;;;;;;8.53;3.80;;;-0.70;99.90;;;;;;4993645;28;20222;-60
2023/02/26 01:51:59;;;;;;;6.33;3.90;;;-0.70;99.90;;;;;;4993946;28;20261;-60
2023/02/26 01:54:31;;;;;;;11.13;4.17;;;-0.60;99.90;;;;;;4994407;28;20194;-60
2023/02/26 01:57:04;;;;;;;8.87;4.07;;;-0.50;99.90;;;;;;4993557;28;20272;-60
2023/02/26 01:59:34;;;;;;;13.40;4.13;;;-0.40;99.90;;;;;;4993360;28;20284;-60
2023/02/26 02:02:05;;;;;;;6.30;4.13;;;-0.30;99.90;;;;;;4976034;28;20317;-61
2023/02/26 02:04:34;;;;;;;10.63;4.10;;;-0.20;99.90;;;;;;4993354;28;20214;-60
2023/02/26 02:07:03;;;;;;;11.10;4.03;;;-0.20;99.90;;;;;;4993475;28;20194;-60
2023/02/26 02:09:33;;;;;;;7.33;3.90;;;-0.10;99.90;;;;;;4994107;28;20190;-61
2023/02/26 02:12:25;;;;;;;12.27;3.73;;;0.00;99.90;;;;;;4993318;28;20645;-60
2023/02/26 02:15:03;;;;;;;11.10;3.77;;;0.10;99.90;;;;;;4993309;28;20227;-60
2023/02/26 02:17:46;;;;;;;15.63;4.23;;;0.20;99.90;;;;;;4993599;28;20230;-60
2023/02/26 02:20:57;;;;;;;18.13;3.93;;;0.30;99.90;;;;;;4993203;28;20233;-59
2023/02/26 02:23:32;;;;;;;11.23;3.97;;;0.30;99.90;;;;;;4993406;28;20239;-60
2023/02/26 02:26:33;;;;;;;11.57;4.13;;;0.30;99.90;;;;;;4993191;28;20222;-60
2023/02/26 02:29:28;;;;;;;10.47;3.23;;;0.30;99.90;;;;;;4993142;28;20218;-61
2023/02/26 02:32:00;;;;;;;9.40;4.20;;;0.30;99.90;;;;;;4989849;28;20712;-60
2023/02/26 02:34:36;;;;;;;9.87;3.50;;;0.30;99.90;;;;;;4993714;28;20233;-59
2023/02/26 02:37:11;;;;;;;9.83;4.03;;;0.20;99.90;;;;;;4995348;28;20187;-60
2023/02/26 02:39:43;;;;;;;7.53;3.60;;;0.10;99.90;;;;;;4997262;28;20193;-60
2023/02/26 02:42:22;;;;;;;11.30;4.03;;;0.00;99.90;;;;;;5007089;28;20222;-60
2023/02/26 02:44:56;;;;;;;13.90;3.83;;;-0.10;99.90;;;;;;5000891;28;20222;-60
2023/02/26 02:47:28;;;;;;;8.67;4.17;;;-0.20;99.90;;;;;;4996662;28;20226;-60
2023/02/26 02:50:02;;;;;;;9.90;4.13;;;-0.20;99.90;;;;;;4996738;28;20218;-60
2023/02/26 02:52:36;;;;;;;7.90;3.90;;;-0.20;99.90;;;;;;4991407;28;20567;-60
2023/02/26 02:55:09;;;;;;;11.77;3.70;;;-0.20;99.90;;;;;;4977522;28;20223;-60
2023/02/26 02:57:44;;;;;;;12.27;4.10;;;-0.20;99.90;;;;;;4977544;28;20214;-61
2023/02/26 03:00:16;;;;;;;11.73;4.00;;;-0.20;99.90;;;;;;4976797;28;20222;-60
2023/02/26 03:02:50;;;;;;;5.03;3.60;;;-0.20;99.90;;;;;;4991783;28;20249;-60
2023/02/26 03:05:18;;;;;;;12.67;3.70;;;-0.20;99.90;;;;;;4996385;28;20248;-60
2023/02/26 03:07:53;;;;;;;9.37;3.97;;;-0.30;99.90;;;;;;4996700;28;20308;-60
2023/02/26 03:10:21;;;;;;;10.77;3.80;;;-0.20;99.90;;;;;;4996516;28;20569;-60
2023/02/26 03:12:50;;;;;;;14.60;3.83;;;-0.20;99.90;;;;;;4996664;28;20219;-60
2023/02/26 03:15:30;;;;;;;8.60;3.80;;;-0.20;99.90;;;;;;4996507;28;20222;-59
2023/02/26 03:18:06;;;;;;;6.87;4.20;;;-0.10;99.90;;;;;;4996353;28;20230;-60
2023/02/26 03:20:39;;;;;;;12.73;4.07;;;-0.20;99.90;;;;;;4996026;28;20222;-60
2023/02/26 03:23:24;;;;;;;8.43;3.90;;;-0.20;99.90;;;;;;4996322;28;20218;-60
2023/02/26 03:25:58;;;;;;;7.73;4.00;;;-0.30;99.90;;;;;;4996135;28;20222;-60
2023/02/26 03:28:31;;;;;;;5.40;3.87;;;-0.30;99.90;;;;;;4995958;28;20280;-60
2023/02/26 03:31:08;;;;;;;13.47;3.73;;;-0.40;99.90;;;;;;4996456;28;20233;-60
2023/02/26 03:33:47;;;;;;;10.40;3.80;;;-0.40;99.90;;;;;;4996645;28;20556;-60
2023/02/26 03:36:20;;;;;;;8.27;3.50;;;-0.30;99.90;;;;;;4995750;28;20230;-60
2023/02/26 03:38:54;;;;;;;6.40;3.87;;;-0.20;99.90;;;;;;4995743;28;20300;-60
2023/02/26 03:41:30;;;;;;;6.23;3.77;;;-0.20;99.90;;;;;;4995674;28;20221;-60
2023/02/26 03:44:03;;;;;;;7.20;3.63;;;-0.20;99.90;;;;;;4995842;28;20225;-60
2023/02/26 03:46:35;;;;;;;7.80;4.27;;;-0.20;99.90;;;;;;4995740;28;20231;-60
2023/02/26 03:49:10;;;;;;;9.73;3.87;;;-0.20;99.90;;;;;;4995522;28;20179;-59
2023/02/26 03:51:41;;;;;;;11.67;3.77;;;0.00;99.90;;;;;;4978735;28;20200;-60
2023/02/26 03:54:13;;;;;;;9.50;4.10;;;0.00;99.90;;;;;;4995495;28;20288;-60
2023/02/26 03:56:44;;;;;;;8.03;3.60;;;0.00;99.90;;;;;;4995706;28;20226;-60
2023/02/26 03:59:16;;;;;;;15.70;4.80;;;0.00;99.90;;;;;;4995169;28;20227;-60
2023/02/26 04:01:51;;;;;;;13.43;3.00;;;0.10;99.90;;;;;;4995171;28;20277;-60
2023/02/26 04:04:26;;;;;;;9.43;3.67;;;0.10;99.90;;;;;;4995410;28;20225;-61
2023/02/26 04:06:58;;;;;;;8.53;3.40;;;0.10;99.90;;;;;;4995032;28;20716;-60
2023/02/26 04:09:27;;;;;;;5.73;3.40;;;0.20;99.90;;;;;;4995600;28;20237;-61
2023/02/26 04:11:57;;;;;;;5.33;3.30;;;0.20;99.90;;;;;;4995160;28;20222;-60
2023/02/26 04:14:25;;;;;;;8.70;3.50;;;0.40;99.90;;;;;;4994954;28;20300;-61
2023/02/26 04:16:53;;;;;;;10.67;3.50;;;0.40;99.90;;;;;;4986743;28;20231;-60
2023/02/26 04:19:23;;;;;;;15.70;3.60;;;0.40;99.90;;;;;;4975495;28;20262;-60
2023/02/26 04:21:51;;;;;;;8.20;3.03;;;0.30;99.90;;;;;;4976176;28;20246;-60
2023/02/26 04:24:20;;;;;;;5.83;2.60;;;0.30;99.90;;;;;;4994951;28;20265;-60
2023/02/26 04:26:48;;;;;;;8.80;2.93;;;0.40;99.90;;;;;;4995089;28;20277;-60
2023/02/26 04:29:19;;;;;;;11.50;2.97;;;0.40;99.90;;;;;;4995279;28;20226;-60
2023/02/26 04:31:47;;;;;;;4.10;2.90;;;0.40;99.90;;;;;;4994991;28;20708;-60
2023/02/26 04:34:16;;;;;;;4.33;2.50;;;0.40;99.90;;;;;;4995109;28;20226;-60
2023/02/26 04:36:45;;;;;;;6.90;2.90;;;0.50;99.90;;;;;;4995293;28;20530;-60
2023/02/26 04:39:14;;;;;;;6.07;3.00;;;0.50;99.90;;;;;;4994811;28;20227;-60
2023/02/26 04:41:42;;;;;;;9.10;2.80;;;0.50;99.90;;;;;;4994787;28;20269;-60
2023/02/26 04:44:10;;;;;;;3.90;2.10;;;0.50;99.90;;;;;;4994609;28;20226;-60
2023/02/26 04:46:39;;;;;;;9.30;2.70;;;0.50;99.90;;;;;;4994615;28;20218;-60
2023/02/26 04:49:07;;;;;;;7.90;2.50;;;0.40;99.90;;;;;;4994981;28;20249;-61
2023/02/26 04:51:35;;;;;;;3.47;2.30;;;0.30;99.90;;;;;;4995180;28;20696;-60
2023/02/26 04:54:05;;;;;;;7.57;2.50;;;0.30;99.90;;;;;;4994083;28;20293;-60
2023/02/26 04:56:33;;;;;;;5.80;2.27;;;0.20;99.90;;;;;;4994484;28;20222;-60
2023/02/26 04:59:02;;;;;;;7.53;2.40;;;0.20;99.90;;;;;;4993822;28;20289;-60
2023/02/26 05:01:31;;;;;;;5.87;2.53;;;0.10;99.90;;;;;;4993981;28;20272;-60
2023/02/26 05:04:00;;;;;;;1.90;1.80;;;0.10;99.90;;;;;;4994224;28;20253;-60
2023/02/26 05:06:28;;;;;;;6.47;2.47;;;0.10;99.90;;;;;;4994821;28;20637;-60
2023/02/26 05:08:59;;;;;;;6.13;2.60;;;0.00;99.90;;;;;;4994447;28;20222;-60
2023/02/26 05:15:35;;;;;;;7.03;2.40;;;0.10;99.90;;;;;;4994098;28;20647;-60
2023/02/26 05:18:41;;;;;;;8.97;2.27;;;0.10;99.90;;;;;;4993714;28;20235;-60
2023/02/26 05:21:09;;;;;;;11.50;2.90;;;0.10;99.90;;;;;;4994398;28;20229;-60
2023/02/26 05:23:38;;;;;;;6.20;2.60;;;0.10;99.90;;;;;;4994162;28;20300;-60
2023/02/26 05:26:06;;;;;;;8.67;3.10;;;0.10;99.90;;;;;;4976347;28;20226;-60
2023/02/26 05:28:35;;;;;;;5.93;2.73;;;0.10;99.90;;;;;;4993939;28;20227;-60
2023/02/26 05:31:05;;;;;;;9.40;2.93;;;0.20;99.90;;;;;;4993700;28;20687;-60
2023/02/26 05:33:34;;;;;;;6.17;2.90;;;0.20;99.90;;;;;;4993893;28;20599;-60
2023/02/26 05:36:02;;;;;;;8.10;3.13;;;0.20;99.90;;;;;;4993566;28;20256;-61
2023/02/26 05:38:30;;;;;;;8.50;2.80;;;0.20;99.90;;;;;;4993859;28;20272;-61
2023/02/26 05:40:59;;;;;;;6.10;2.80;;;0.10;99.90;;;;;;4994007;28;20624;-61
2023/02/26 05:43:28;;;;;;;5.20;2.40;;;0.10;99.90;;;;;;4992454;28;20230;-61
2023/02/26 05:45:59;;;;;;;12.70;2.70;;;0.00;99.90;;;;;;4993935;28;20600;-60
2023/02/26 05:48:28;;;;;;;6.53;2.20;;;-0.10;99.90;;;;;;4994256;28;20568;-61
2023/02/26 05:50:57;;;;;;;9.13;2.50;;;-0.20;99.90;;;;;;4993631;28;20254;-60
2023/02/26 05:53:25;;;;;;;3.70;2.17;;;-0.30;99.90;;;;;;4993652;28;20684;-61
2023/02/26 05:55:54;;;;;;;7.87;2.33;;;-0.30;99.90;;;;;;4993687;28;20626;-60
2023/02/26 05:58:22;;;;;;;7.40;2.40;;;-0.40;99.90;;;;;;4993744;28;20262;-60
2023/02/26 06:00:50;;;;;;;6.87;2.30;;;-0.40;99.90;;;;;;4993652;28;20202;-60
2023/02/26 06:03:19;;;;;;;7.23;2.33;;;-0.40;99.90;;;;;;4993568;28;20277;-60
2023/02/26 06:05:49;;;;;;;7.07;2.50;;;-0.50;99.90;;;;;;4993324;28;20243;-61
2023/02/26 06:08:17;;;;;;;5.30;2.30;;;-0.50;99.90;;;;;;4993368;28;20219;-61
2023/02/26 06:10:45;;;;;;;3.33;2.33;;;-0.50;99.90;;;;;;4993529;28;20250;-60
2023/02/26 06:13:13;;;;;;;9.20;2.40;;;-0.50;99.90;;;;;;4997698;28;20225;-61
2023/02/26 06:15:42;;;;;;;4.60;2.30;;;-0.50;99.90;;;;;;4997724;28;20191;-61
2023/02/26 06:18:10;;;;;;;5.97;2.40;;;-0.50;99.90;;;;;;4996497;28;20281;-61
2023/02/26 06:20:38;;;;;;;9.17;2.40;;;-0.40;99.90;;;;;;4997081;28;20224;-60
2023/02/26 06:23:08;;;;;;;4.27;2.50;;;-0.30;99.90;;;;;;4996992;28;20227;-60
2023/02/26 06:25:36;;;;;;;8.80;2.67;;;-0.20;99.90;;;;;;4996992;28;20284;-60
2023/02/26 06:28:04;;;;;;;9.10;2.50;;;-0.20;99.90;;;;;;4996637;28;20306;-60
2023/02/26 06:30:32;;;;;;;2.40;2.20;;;-0.20;99.90;;;;;;4997167;28;20191;-60
2023/02/26 06:33:00;;;;;;;7.20;2.23;;;-0.20;99.90;;;;;;4996528;28;20236;-60
2023/02/26 06:35:29;;;;;;;4.10;1.93;;;-0.10;99.90;;;;;;4996873;28;20226;-60
2023/02/26 06:37:58;;;;;;;5.33;2.10;;;-0.20;99.90;;;;;;4996799;28;20297;-60
2023/02/26 06:40:27;;;;;;;5.27;2.47;;;-0.10;99.90;;;;;;4996766;28;20219;-60
2023/02/26 06:42:55;;;;;;;8.03;2.50;;;0.00;99.90;;;;;;4996770;28;20198;-60
2023/02/26 06:45:24;;;;;;;4.67;2.00;;;0.00;99.90;;;;;;4997181;28;20187;-61
2023/02/26 06:47:54;;;;;;;2.30;2.10;;;0.00;99.90;;;;;;4978926;28;20226;-60
2023/02/26 06:50:22;;;;;;;4.13;1.80;;;0.00;99.90;;;;;;4996313;28;20218;-60
2023/02/26 06:52:51;;;;;;;7.30;2.17;;;0.00;99.90;;;;;;4996211;28;20230;-60
2023/02/26 06:55:20;;;;;;;4.43;1.83;;;0.00;99.90;;;;;;4997016;28;20261;-60
2023/02/26 06:57:50;;;;;;;5.10;2.10;;;0.10;99.90;;;;;;4997194;28;20637;-60
2023/02/26 07:00:18;;;;;;;7.23;2.20;;;0.10;99.90;;;;;;4996626;28;20633;-59
2023/02/26 07:02:47;;;;;;;7.43;2.10;;;0.10;99.90;;;;;;4996350;28;20239;-60
2023/02/26 07:05:16;;;;;;;4.67;1.97;;;0.10;99.90;;;;;;4996589;28;20249;-60
2023/02/26 07:07:44;;;;;;;8.63;2.23;;;0.10;99.90;;;;;;4996553;28;20289;-60
2023/02/26 07:10:13;;;;;;;3.80;2.10;;;0.20;99.90;;;;;;4996469;28;20280;-60
2023/02/26 07:12:41;;;;;;;4.83;2.40;;;0.10;99.90;;;;;;4979184;28;20203;-60
2023/02/26 07:15:11;;;;;;;4.83;2.70;;;0.10;99.90;;;;;;4997902;28;20230;-60
2023/02/26 07:17:40;;;;;;;8.87;2.83;;;0.00;99.90;;;;;;5016143;28;20245;-61
2023/02/26 07:20:11;;;;;;;6.40;3.00;;;0.00;99.90;;;;;;5015390;28;20638;-60
2023/02/26 07:22:39;;;;;;;6.10;2.60;;;0.00;99.90;;;;;;5015525;28;20226;-60
2023/02/26 07:25:07;;;;;;;10.40;3.70;;;0.00;99.90;;;;;;5016393;28;20190;-60
2023/02/26 07:27:36;;;;;;;5.90;3.00;;;0.00;99.90;;;;;;4977105;28;20245;-60
2023/02/26 07:30:06;;;;;;;7.20;2.57;;;0.00;99.90;;;;;;4976787;28;20243;-60
2023/02/26 07:32:35;;;;;;;2.90;2.30;;;0.00;99.90;;;;;;4975366;28;20673;-60
2023/02/26 07:35:04;;;;;;;2.40;2.20;;;0.10;99.90;;;;;;4960115;28;20231;-60
2023/02/26 07:37:32;;;;;;;7.23;2.80;;;0.30;99.90;;;;;;4995976;28;20234;-60
2023/02/26 07:40:01;;;;;;;5.20;2.40;;;0.60;99.90;;;;;;4992000;28;20252;-60
2023/02/26 07:42:29;;;;;;;6.80;2.53;;;0.90;99.90;;;;;;4994898;28;20195;-60
2023/02/26 07:44:58;;;;;;;7.90;2.63;;;1.20;99.90;;;;;;4994233;28;20230;-60
2023/02/26 07:48:03;;;;;;;4.30;2.83;;;1.50;99.90;;;;;;4995613;28;20254;-60
2023/02/26 07:50:32;;;;;;;5.47;2.43;;;1.90;99.90;;;;;;4995276;28;20222;-61
2023/02/26 07:53:01;;;;;;;9.47;3.40;;;2.20;99.90;;;;;;4998933;28;20380;-60
2023/02/26 07:55:29;;;;;;;10.43;3.77;;;2.40;99.90;;;;;;4998708;28;20227;-60
2023/02/26 07:57:57;;;;;;;7.30;3.07;;;2.60;99.90;;;;;;4995552;28;20190;-60
2023/02/26 08:00:25;;;;;;;3.73;2.77;;;2.70;99.90;;;;;;4995952;28;20276;-61
2023/02/26 08:02:54;;;;;;;9.03;3.40;;;2.80;99.90;;;;;;4995388;28;20226;-60
2023/02/26 08:05:22;;;;;;;5.30;2.20;;;2.80;99.90;;;;;;4995201;28;20277;-60
2023/02/26 08:07:52;;;;;;;4.20;2.03;;;3.00;99.90;;;;;;4994978;28;20226;-61
2023/02/26 08:10:20;;;;;;;5.43;2.40;;;3.40;99.90;;;;;;4995391;28;20218;-61
2023/02/26 08:12:48;;;;;;;3.87;2.43;;;3.80;99.90;;;;;;4995745;28;20261;-61
2023/02/26 08:15:16;;;;;;;8.03;2.50;;;3.90;99.90;;;;;;4994992;28;20234;-61
2023/02/26 08:17:45;;;;;;;6.20;2.40;;;3.60;99.90;;;;;;4995232;28;20230;-61
2023/02/26 08:20:14;;;;;;;2.40;1.87;;;3.60;99.90;;;;;;4995128;28;20285;-61
2023/02/26 08:22:42;;;;;;;4.83;1.80;;;3.70;99.90;;;;;;4994928;28;20235;-61
2023/02/26 08:25:12;;;;;;;2.53;1.60;;;3.90;99.90;;;;;;4995001;28;20237;-62
2023/02/26 08:31:47;;;;;;;5.37;2.10;;;4.20;99.90;;;;;;4975214;28;20274;-61
2023/02/26 08:34:15;;;;;;;3.13;1.50;;;4.10;99.90;;;;;;4973348;28;20238;-61
2023/02/26 08:36:44;;;;;;;3.27;2.17;;;4.20;99.90;;;;;;4976002;28;20191;-62
2023/02/26 08:39:12;;;;;;;2.73;1.77;;;4.30;99.90;;;;;;4975648;28;20227;-61
2023/02/26 08:41:42;;;;;;;3.13;1.63;;;4.30;99.90;;;;;;4975324;28;20223;-61
2023/02/26 08:44:10;;;;;;;3.77;1.90;;;4.10;99.90;;;;;;4979847;28;20581;-61
2023/02/26 08:46:38;;;;;;;2.60;1.80;;;4.20;99.90;;;;;;4988240;28;20545;-61
2023/02/26 08:53:13;;;;;;;5.30;1.90;;;4.70;99.90;;;;;;4955549;28;20639;-62
2023/02/26 08:55:43;;;;;;;3.73;1.70;;;4.60;99.90;;;;;;4955717;28;20227;-62
2023/02/26 08:58:13;;;;;;;1.90;1.70;;;4.70;99.90;;;;;;4955392;28;20173;-62
2023/02/26 09:00:41;;;;;;;4.43;2.13;;;4.80;99.90;;;;;;4997033;23;20237;-60
2023/02/26 09:03:09;;;;;;;9.20;2.90;;;5.00;99.90;;;;;;5051507;28;20242;-60
2023/02/26 09:05:39;;;;;;;7.63;2.53;;;5.00;99.90;;;;;;5049280;28;20209;-59
2023/02/26 09:08:08;;;;;;;4.73;1.90;;;5.20;99.90;;;;;;5053137;28;20311;-60
2023/02/26 09:10:37;;;;;;;4.00;2.00;;;5.10;99.90;;;;;;5049878;28;20213;-59
2023/02/26 09:13:08;;;;;;;5.43;2.00;;;5.00;99.90;;;;;;5049280;28;20204;-60
2023/02/26 09:15:38;;;;;;;2.17;1.80;;;5.30;99.90;;;;;;5024150;28;20262;-60
2023/02/26 09:18:27;;;;;;;2.27;1.90;;;5.20;99.90;;;;;;5031585;28;20217;-60
2023/02/26 09:21:14;;;;;;;5.40;2.10;;;5.10;99.90;;;;;;5043635;28;20216;-60
2023/02/26 09:23:42;;;;;;;5.07;2.80;;;5.00;99.90;;;;;;5046334;28;20208;-60
2023/02/26 09:26:10;;;;;;;5.23;1.87;;;5.30;99.90;;;;;;5053042;28;20329;-60
2023/02/26 09:28:38;;;;;;;3.97;1.70;;;5.50;99.90;;;;;;5052712;28;20224;-59
2023/02/26 09:31:08;;;;;;;1.70;1.60;;;5.50;99.90;;;;;;5048730;28;20638;-59
2023/02/26 09:33:36;;;;;;;3.17;1.70;;;5.40;99.90;;;;;;5050535;28;20254;-60
2023/02/26 09:36:05;;;;;;;2.87;1.80;;;5.60;99.90;;;;;;5052375;28;20221;-60
2023/02/26 09:38:35;;;;;;;1.83;1.73;;;5.80;99.90;;;;;;5049689;28;20698;-60
2023/02/26 09:41:07;;;;;;;3.73;1.50;;;6.20;99.90;;;;;;5051736;28;20240;-60
2023/02/26 09:43:58;;;;;;;2.10;1.90;;;6.50;99.90;;;;;;5052412;28;20251;-60
2023/02/26 09:46:37;;;;;;;1.83;1.73;;;6.60;99.90;;;;;;5046043;28;20552;-60
2023/02/26 09:49:18;;;;;;;2.67;1.50;;;6.40;99.90;;;;;;5051879;28;20223;-62
2023/02/26 09:51:47;;;;;;;2.27;1.80;;;6.10;99.90;;;;;;5049912;28;20195;-60
2023/02/26 09:54:21;;;;;;;3.00;1.40;;;6.30;99.90;;;;;;5051678;28;20220;-60
2023/02/26 09:56:51;;;;;;;1.90;1.57;;;6.20;99.90;;;;;;5027113;28;20264;-61
2023/02/26 09:59:19;;;;;;;2.00;1.60;;;6.10;99.90;;;;;;5028055;28;20223;-61
2023/02/26 10:01:56;;;;;;;4.17;1.50;;;6.20;99.90;;;;;;5024961;28;20344;-61
2023/02/26 10:04:37;;;;;;;3.40;1.60;;;6.50;99.90;;;;;;5026828;28;20225;-61
2023/02/26 10:07:16;;;;;;;3.37;1.50;;;6.60;99.90;;;;;;5003106;28;20243;-61
2023/02/26 10:09:58;;;;;;;4.47;1.70;;;6.40;99.90;;;;;;5029032;28;20200;-62
2023/02/26 10:12:29;;;;;;;2.07;1.60;;;6.60;99.90;;;;;;5030720;28;20559;-62
2023/02/26 10:15:01;;;;;;;2.47;1.50;;;6.90;99.90;;;;;;5028747;28;20748;-62
2023/02/26 10:17:35;;;;;;;2.07;1.60;;;6.50;99.90;;;;;;5021364;28;20769;-61
2023/02/26 10:20:09;;;;;;;2.03;1.90;;;6.40;99.90;;;;;;5028281;28;20229;-62
2023/02/26 10:22:42;;;;;;;1.50;1.50;;;6.80;99.90;;;;;;5029583;28;20225;-62
2023/02/26 10:25:16;;;;;;;1.70;1.60;;;6.70;99.90;;;;;;5025185;28;20197;-61
2023/02/26 10:27:53;;;;;;;3.70;1.60;;;6.10;99.90;;;;;;5025228;28;20182;-62
2023/02/26 10:30:29;;;;;;;1.90;1.80;;;6.10;99.90;;;;;;5026498;28;20231;-62
2023/02/26 10:33:10;;;;;;;2.00;1.77;;;6.50;99.90;;;;;;5027307;28;20248;-62
2023/02/26 10:35:47;;;;;;;2.37;1.57;;;6.90;99.90;;;;;;5027843;28;20309;-62
2023/02/26 10:38:19;;;;;;;1.70;1.60;;;7.20;99.90;;;;;;5028882;28;20213;-62
2023/02/26 10:40:50;;;;;;;4.50;2.03;;;7.10;99.90;;;;;;5028265;28;20220;-62
2023/02/26 10:43:22;;;;;;;5.00;2.87;;;7.60;99.90;;;;;;5023240;28;20217;-62
2023/02/26 10:46:05;;;;;;;2.87;2.10;;;8.00;99.90;;;;;;5031862;28;20178;-62
2023/02/26 10:49:02;;;;;;;1.77;1.67;;;8.20;99.90;;;;;;5018769;28;20205;-62
2023/02/26 10:51:35;;;;;;;1.30;1.30;;;8.60;99.90;;;;;;5019809;28;20256;-62
2023/02/26 10:54:23;;;;;;;2.00;1.70;;;8.10;99.90;;;;;;5027971;23;20236;-62
2023/02/26 10:56:51;;;;;;;1.70;1.53;;;8.10;99.90;;;;;;5041912;28;20240;-62
2023/02/26 10:59:20;;;;;;;1.50;1.40;;;7.40;99.90;;;;;;5040642;28;20220;-62
2023/02/26 11:01:49;;;;;;;3.43;1.40;;;7.70;99.90;;;;;;5035202;28;20221;-62
2023/02/26 11:04:23;;;;;;;1.70;1.60;;;7.90;99.90;;;;;;5025415;28;20232;-62
2023/02/26 11:06:55;;;;;;;1.40;1.40;;;8.00;99.90;;;;;;5026802;28;20182;-62
2023/02/26 11:09:26;;;;;;;3.60;2.00;;;8.30;99.90;;;;;;5023028;28;20226;-62
2023/02/26 11:11:57;;;;;;;1.70;1.53;;;8.50;99.90;;;;;;5025561;28;20232;-62
2023/02/26 11:14:25;;;;;;;1.87;1.63;;;8.70;99.90;;;;;;5025814;28;20224;-62
2023/02/26 11:17:01;;;;;;;2.47;1.60;;;8.20;99.90;;;;;;5022836;28;20257;-62
2023/02/26 11:19:35;;;;;;;2.63;2.27;;;6.90;99.90;;;;;;5026997;28;20224;-62
2023/02/26 11:22:08;;;;;;;1.83;1.70;;;7.00;99.90;;;;;;5033155;28;20622;-62
2023/02/26 11:24:39;;;;;;;1.50;1.50;;;7.30;99.90;;;;;;5028100;28;20205;-62
2023/02/26 11:27:12;;;;;;;1.80;1.60;;;7.70;99.90;;;;;;5033447;28;20221;-62
2023/02/26 11:29:43;;;;;;;2.83;1.60;;;7.90;99.90;;;;;;5029672;28;20210;-62
2023/02/26 11:32:18;;;;;;;3.50;1.50;;;7.60;99.90;;;;;;5032091;28;20229;-62
2023/02/26 11:34:51;;;;;;;1.87;1.63;;;7.70;99.90;;;;;;5018818;28;20308;-62
2023/02/26 11:37:22;;;;;;;1.23;1.23;;;7.60;99.90;;;;;;5028757;28;20228;-62
2023/02/26 11:39:56;;;;;;;2.13;1.63;;;8.30;99.90;;;;;;5022893;28;20185;-62
2023/02/26 11:42:27;;;;;;;5.47;2.30;;;8.40;99.90;;;;;;5020144;28;20232;-62
2023/02/26 11:44:58;;;;;;;2.40;1.70;;;8.10;99.90;;;;;;5023968;28;20308;-62
2023/02/26 11:47:30;;;;;;;1.60;1.40;;;7.70;99.90;;;;;;5024314;28;20225;-62
2023/02/26 11:50:10;;;;;;;1.40;1.30;;;7.20;99.90;;;;;;5029212;28;20194;-61
2023/02/26 11:52:42;;;;;;;1.67;1.57;;;6.70;99.90;;;;;;5030929;28;20185;-62
2023/02/26 11:55:20;;;;;;;2.30;1.77;;;7.30;99.90;;;;;;5024430;28;20240;-62
2023/02/26 11:57:53;;;;;;;2.73;1.60;;;7.20;99.90;;;;;;5021101;28;20618;-62
2023/02/26 12:00:25;;;;;;;1.80;1.70;;;7.10;99.90;;;;;;5043168;28;20217;-61
2023/02/26 12:03:00;;;;;;;1.40;1.40;;;6.70;99.90;;;;;;5037117;28;20641;-61
2023/02/26 12:05:31;;;;;;;2.63;1.80;;;6.40;99.90;;;;;;5031059;28;20248;-61
2023/02/26 12:07:59;;;;;;;1.63;1.60;;;6.40;99.90;;;;;;5026066;28;20178;-61
2023/02/26 12:10:33;;;;;;;2.00;1.90;;;6.70;99.90;;;;;;5026490;28;20187;-61
2023/02/26 12:13:11;;;;;;;2.83;1.50;;;6.90;99.90;;;;;;5047443;28;20254;-62
2023/02/26 12:15:51;;;;;;;1.57;1.47;;;7.20;99.90;;;;;;5044954;28;20243;-62
2023/02/26 12:18:38;;;;;;;1.60;1.50;;;7.30;99.90;;;;;;5043783;28;20328;-62
2023/02/26 12:21:20;;;;;;;2.20;1.93;;;7.90;99.90;;;;;;5044438;28;20228;-62
2023/02/26 12:24:15;;;;;;;1.80;1.70;;;8.00;99.90;;;;;;5044888;28;20285;-62
2023/02/26 12:26:53;;;;;;;1.77;1.60;;;7.40;99.90;;;;;;5035098;28;20243;-62
2023/02/26 12:29:38;;;;;;;2.10;1.70;;;7.40;99.90;;;;;;5046298;28;20274;-61
2023/02/26 12:32:25;;;;;;;2.10;1.90;;;7.50;99.90;;;;;;5042202;28;20224;-61
2023/02/26 12:35:34;;;;;;;1.87;1.57;;;7.00;99.90;;;;;;5043602;28;20201;-61
2023/02/26 12:38:15;;;;;;;6.53;1.70;;;6.90;99.90;;;;;;5045909;28;20689;-61
2023/02/26 12:40:57;;;;;;;2.27;1.60;;;7.60;99.90;;;;;;5028595;28;20774;-62
2023/02/26 12:43:34;;;;;;;2.07;1.90;;;7.40;99.90;;;;;;5045968;28;20295;-62
2023/02/26 12:46:12;;;;;;;2.13;1.50;;;7.20;99.90;;;;;;5031862;28;20605;-62
2023/02/26 12:49:19;;;;;;;3.50;1.80;;;7.60;99.90;;;;;;5046523;28;20697;-62
2023/02/26 12:52:19;;;;;;;2.60;1.83;;;7.70;99.90;;;;;;5008518;28;20298;-62
2023/02/26 12:55:03;;;;;;;1.60;1.50;;;7.40;99.90;;;;;;5041934;28;20232;-62
2023/02/26 12:57:54;;;;;;;2.50;1.80;;;7.60;99.90;;;;;;5043148;28;20216;-61
2023/02/26 13:00:37;;;;;;;2.10;1.90;;;7.60;99.90;;;;;;5033639;28;20252;-61
2023/02/26 13:03:26;;;;;;;1.70;1.60;;;7.40;99.90;;;;;;5040223;28;20724;-61
2023/02/26 13:06:21;;;;;;;1.70;1.60;;;7.40;99.90;;;;;;5049953;28;20278;-61
2023/02/26 13:08:58;;;;;;;3.40;1.77;;;7.20;99.90;;;;;;5018486;28;20288;-61
2023/02/26 13:11:46;;;;;;;1.83;1.70;;;7.00;99.90;;;;;;5022840;28;20216;-61
2023/02/26 13:14:33;;;;;;;1.60;1.43;;;7.00;99.90;;;;;;5027185;28;20803;-61
2023/02/26 13:17:07;;;;;;;2.70;1.50;;;6.80;99.90;;;;;;5024948;28;20698;-61
2023/02/26 13:19:43;;;;;;;1.90;1.80;;;7.10;99.90;;;;;;5025636;28;20239;-61
2023/02/26 13:22:20;;;;;;;2.73;1.80;;;7.40;99.90;;;;;;5007274;28;20221;-61
2023/02/26 13:24:54;;;;;;;4.10;1.60;;;7.50;99.90;;;;;;5009251;28;20213;-61
2023/02/26 13:27:28;;;;;;;2.70;1.77;;;7.40;99.90;;;;;;5020089;28;20216;-61
2023/02/26 13:30:14;;;;;;;3.60;1.50;;;7.30;99.90;;;;;;5019626;28;20225;-62
2023/02/26 13:32:44;;;;;;;2.07;1.50;;;7.20;99.90;;;;;;5021737;28;20222;-61
2023/02/26 13:35:21;;;;;;;2.47;1.90;;;7.20;99.90;;;;;;5019260;28;20300;-61
2023/02/26 13:37:52;;;;;;;3.80;1.87;;;7.00;99.90;;;;;;5022553;28;20205;-61
2023/02/26 13:40:51;;;;;;;3.33;2.13;;;7.10;99.90;;;;;;5014004;28;20628;-62
2023/02/26 13:43:37;;;;;;;2.07;1.97;;;7.10;99.90;;;;;;4999453;28;20773;-61
2023/02/26 13:46:22;;;;;;;2.40;2.20;;;7.30;99.90;;;;;;5005850;28;20225;-62